createdAt,value
2023-08-17T00:04:59.265Z,101797.22
2023-08-17T00:10:02.379Z,101788.72
2023-08-17T00:15:06.157Z,101787.47
2023-08-17T00:20:11.692Z,101794.06
2023-08-17T00:25:14.836Z,101776.19
2023-08-17T00:30:17.638Z,101775.25
2023-08-17T00:35:22.050Z,101779.13
2023-08-17T00:40:25.829Z,101768.59
2023-08-17T00:45:30.635Z,101769.88
2023-08-17T00:50:34.875Z,101767.97
2023-08-17T00:55:38.438Z,101769.22
2023-08-17T01:00:42.317Z,101757.56
2023-08-17T01:05:47.389Z,101760.56
2023-08-17T01:10:59.383Z,101760.31
2023-08-17T01:16:07.612Z,101753.69
2023-08-17T01:21:15.863Z,101737.91
2023-08-17T01:26:19.988Z,101747.91
2023-08-17T01:31:32.644Z,101739.97
2023-08-17T01:36:39.760Z,101749.72
2023-08-17T01:41:45.430Z,101750.91
2023-08-17T01:46:48.471Z,101753.25
2023-08-17T01:51:51.335Z,101783.28
2023-08-17T01:56:55.436Z,101768.94
2023-08-17T02:01:58.326Z,101767.50
2023-08-17T02:07:01.850Z,101770.75
2023-08-17T02:12:07.508Z,101774.50
2023-08-17T02:17:10.338Z,101763.97
2023-08-17T02:22:13.241Z,101753.06
2023-08-17T02:27:17.364Z,101747.03
2023-08-17T02:32:20.204Z,101742.19
2023-08-17T02:37:24.206Z,101749.50
2023-08-17T02:42:28.608Z,101744.13
2023-08-17T02:47:31.465Z,101749.06
2023-08-17T02:52:34.373Z,101749.38
2023-08-17T02:57:38.484Z,101749.94
2023-08-17T03:02:41.364Z,101747.72
2023-08-17T03:07:44.170Z,101747.97
2023-08-17T03:12:48.330Z,101737.38
2023-08-17T03:17:51.650Z,101743.81
2023-08-17T03:22:54.477Z,101748.81
2023-08-17T03:27:58.725Z,101760.56
2023-08-17T03:33:01.807Z,101754.44
2023-08-17T03:38:07.154Z,101755.88
2023-08-17T03:43:11.397Z,101761.06
2023-08-17T03:48:14.521Z,101751.09
2023-08-17T03:53:17.323Z,101751.66
2023-08-17T03:58:21.487Z,101756.56
2023-08-17T04:03:24.393Z,101753.69
2023-08-17T04:08:27.229Z,101740.69
2023-08-17T04:13:31.516Z,101747.31
2023-08-17T04:18:34.321Z,101759.22
2023-08-17T04:23:37.184Z,101767.56
2023-08-17T04:28:41.313Z,101768.13
2023-08-17T04:33:44.275Z,101780.38
2023-08-17T04:38:47.569Z,101774.97
2023-08-17T04:43:51.842Z,101779.25
2023-08-17T04:48:54.801Z,101779.41
2023-08-17T04:53:57.914Z,101779.81
2023-08-17T04:59:03.053Z,101785.97
2023-08-17T05:04:06.786Z,101786.78
2023-08-17T05:09:09.700Z,101784.44
2023-08-17T05:14:14.108Z,101795.88
2023-08-17T05:19:16.986Z,101802.41
2023-08-17T05:24:21.546Z,101800.91
2023-08-17T05:29:25.862Z,101807.13
2023-08-17T05:34:28.660Z,101820.94
2023-08-17T05:39:33.553Z,101831.25
2023-08-17T05:44:39.277Z,101842.78
2023-08-17T05:49:42.121Z,101836.91
2023-08-17T05:54:44.919Z,101846.72
2023-08-17T05:59:49.045Z,101853.88
2023-08-17T06:04:51.964Z,101862.38
2023-08-17T06:09:54.730Z,101894.50
2023-08-17T06:14:58.948Z,101879.47
2023-08-17T06:20:01.853Z,101907.19
2023-08-17T06:25:06.978Z,101920.91
2023-08-17T06:30:13.032Z,101924.84
2023-08-17T06:35:15.904Z,101928.47
2023-08-17T06:40:18.683Z,101916.97
2023-08-17T06:45:23.787Z,101951.28
2023-08-17T06:50:27.904Z,101940.69
2023-08-17T06:55:30.928Z,101918.25
2023-08-17T07:00:36.409Z,101937.97
2023-08-17T07:05:39.241Z,101919.84
2023-08-17T07:10:42.005Z,101908.44
2023-08-17T07:15:46.137Z,101883.56
2023-08-17T07:20:50.361Z,101894.13
2023-08-17T07:25:53.160Z,101888.47
2023-08-17T07:30:57.266Z,101897.59
2023-08-17T07:36:00.284Z,101896.06
2023-08-17T07:41:03.207Z,101916.00
2023-08-17T07:46:07.463Z,101905.63
2023-08-17T07:51:10.371Z,101891.75
2023-08-17T07:56:13.200Z,101890.94
2023-08-17T08:01:17.341Z,101885.06
2023-08-17T08:06:21.571Z,101894.81
2023-08-17T08:11:24.493Z,101899.25
2023-08-17T08:16:30.567Z,101885.78
2023-08-17T08:21:33.391Z,101882.91
2023-08-17T08:26:36.199Z,101882.53
2023-08-17T08:31:40.320Z,101886.34
2023-08-17T08:36:43.148Z,101883.25
2023-08-17T08:41:45.973Z,101907.09
2023-08-17T08:46:50.868Z,101876.88
2023-08-17T08:51:54.063Z,101854.78
2023-08-17T08:57:01.345Z,101832.88
2023-08-17T09:02:05.897Z,101834.41
2023-08-17T09:07:09.760Z,101820.84
2023-08-17T09:12:12.869Z,101831.50
2023-08-17T09:17:25.182Z,101826.38
2023-08-17T09:22:39.917Z,101825.81
2023-08-17T09:27:42.878Z,101819.72
2023-08-17T09:32:50.617Z,101831.44
2023-08-17T09:37:53.986Z,101816.94
2023-08-17T09:42:56.820Z,101806.78
2023-08-17T09:48:03.692Z,101807.56
2023-08-17T09:53:07.204Z,101794.34
2023-08-17T09:58:10.186Z,101777.81
2023-08-17T10:03:16.314Z,101779.72
2023-08-17T10:08:22.633Z,101794.47
2023-08-17T10:13:33.613Z,101795.97
2023-08-17T10:18:44.649Z,101788.06
2023-08-17T10:23:48.220Z,101791.22
2023-08-17T10:28:52.349Z,101785.53
2023-08-17T10:33:57.167Z,101782.16
2023-08-17T10:39:28.578Z,101792.31
2023-08-17T10:44:41.306Z,101774.84
2023-08-17T10:49:45.469Z,101777.59
2023-08-17T10:54:49.922Z,101772.44
2023-08-17T11:00:11.902Z,101776.69
2023-08-17T11:05:18.345Z,101793.53
2023-08-17T11:10:31.530Z,101790.38
2023-08-17T11:15:43.583Z,101818.66
2023-08-17T11:20:49.696Z,101825.09
2023-08-17T11:25:54.686Z,101859.91
2023-08-17T11:31:01.550Z,101876.72
2023-08-17T11:36:07.585Z,101863.06
2023-08-17T11:41:11.151Z,101853.66
2023-08-17T11:46:22.767Z,101842.44
2023-08-17T11:51:32.533Z,101840.28
2023-08-17T11:56:35.653Z,101824.63
2023-08-17T12:01:38.553Z,101791.50
2023-08-17T12:06:46.644Z,101822.66
2023-08-17T12:11:49.250Z,101844.41
2023-08-17T12:16:52.042Z,101864.31
2023-08-17T12:21:56.212Z,101866.75
2023-08-17T12:26:59.888Z,101851.72
2023-08-17T12:32:03.613Z,101846.41
2023-08-17T12:37:10.066Z,101824.13
2023-08-17T12:42:12.851Z,101827.81
2023-08-17T12:47:15.637Z,101825.78
2023-08-17T12:52:19.772Z,101814.13
2023-08-17T12:57:22.660Z,101825.13
2023-08-17T13:02:26.234Z,101834.78
2023-08-17T13:07:30.656Z,101836.88
2023-08-17T13:12:33.438Z,101847.72
2023-08-17T13:17:36.338Z,101835.50
2023-08-17T13:22:40.462Z,101840.34
2023-08-17T13:27:43.343Z,101850.81
2023-08-17T13:32:47.007Z,101845.75
2023-08-17T13:37:54.956Z,101816.22
2023-08-17T13:42:58.950Z,101791.75
2023-08-17T13:48:01.808Z,101770.59
2023-08-17T13:53:06.254Z,101761.84
2023-08-17T13:58:11.185Z,101748.56
2023-08-17T14:03:14.211Z,101750.22
2023-08-17T14:08:18.480Z,101753.66
2023-08-17T14:13:21.235Z,101752.22
2023-08-17T14:18:24.261Z,101757.41
2023-08-17T14:23:28.446Z,101746.03
2023-08-17T14:28:31.335Z,101755.81
2023-08-17T14:33:34.180Z,101746.41
2023-08-17T14:38:38.397Z,101742.75
2023-08-17T14:43:41.413Z,101735.91
2023-08-17T14:48:44.272Z,101725.34
2023-08-17T14:53:48.427Z,101722.28
2023-08-17T14:58:51.299Z,101708.47
2023-08-17T15:03:54.107Z,101718.84
2023-08-17T15:08:58.276Z,101711.28
2023-08-17T15:14:01.043Z,101708.31
2023-08-17T15:19:04.351Z,101706.63
2023-08-17T15:24:08.836Z,101705.50
2023-08-17T15:29:11.593Z,101710.34
2023-08-17T15:34:14.402Z,101709.53
2023-08-17T15:39:18.666Z,101704.75
2023-08-17T15:44:21.519Z,101705.63
2023-08-17T15:49:24.320Z,101704.59
2023-08-17T15:54:35.942Z,101698.94
2023-08-17T15:59:40.252Z,101713.03
2023-08-17T16:04:43.215Z,101689.75
2023-08-17T16:09:47.418Z,101687.53
2023-08-17T16:14:50.202Z,101704.38
2023-08-17T16:19:52.979Z,101703.31
2023-08-17T16:24:57.143Z,101704.13
2023-08-17T16:29:59.935Z,101700.56
2023-08-17T16:35:02.767Z,101692.56
2023-08-17T16:40:09.775Z,101703.34
2023-08-17T16:45:15.989Z,101688.13
2023-08-17T16:50:19.010Z,101673.09
2023-08-17T16:55:23.262Z,101688.41
2023-08-17T17:00:26.290Z,101690.09
2023-08-17T17:05:29.101Z,101688.63
2023-08-17T17:10:33.347Z,101699.22
2023-08-17T17:15:36.209Z,101693.75
2023-08-17T17:20:39.046Z,101686.50
2023-08-17T17:25:43.232Z,101695.28
2023-08-17T17:30:46.450Z,101692.66
2023-08-17T17:35:49.276Z,101693.53
2023-08-17T17:40:53.596Z,101688.94
2023-08-17T17:45:56.369Z,101689.91
2023-08-17T17:50:59.130Z,101689.84
2023-08-17T17:56:03.350Z,101685.78
2023-08-17T18:01:06.569Z,101684.63
2023-08-17T18:06:09.539Z,101690.72
2023-08-17T18:11:13.711Z,101691.59
2023-08-17T18:16:16.520Z,101690.03
2023-08-17T18:21:19.347Z,101690.72
2023-08-17T18:26:23.547Z,101685.97
2023-08-17T18:31:26.519Z,101687.19
2023-08-17T18:36:29.310Z,101695.97
2023-08-17T18:41:33.607Z,101697.06
2023-08-17T18:46:37.422Z,101698.59
2023-08-17T18:51:41.800Z,101693.13
2023-08-17T18:56:45.949Z,101700.94
2023-08-17T19:01:48.790Z,101690.13
2023-08-17T19:06:51.706Z,101701.22
2023-08-17T19:11:55.881Z,101705.09
2023-08-17T19:17:00.063Z,101694.91
2023-08-17T19:22:02.876Z,101694.69
2023-08-17T19:27:07.257Z,101704.19
2023-08-17T19:32:10.101Z,101685.06
2023-08-17T19:37:12.919Z,101679.16
2023-08-17T19:42:17.254Z,101680.22
2023-08-17T19:47:21.265Z,101677.44
2023-08-17T19:52:24.164Z,101682.19
2023-08-17T19:57:28.649Z,101666.03
2023-08-17T20:02:32.839Z,101665.84
2023-08-17T20:07:35.745Z,101660.69
2023-08-17T20:12:39.872Z,101666.16
2023-08-17T20:17:42.676Z,101657.31
2023-08-17T20:22:45.518Z,101660.00
2023-08-17T20:27:50.335Z,101656.59
2023-08-17T20:32:53.225Z,101663.16
2023-08-17T20:37:56.051Z,101661.31
2023-08-17T20:43:00.225Z,101662.13
2023-08-17T20:48:03.049Z,101664.94
2023-08-17T20:53:06.753Z,101675.16
2023-08-17T20:58:11.092Z,101676.94
2023-08-17T21:03:13.986Z,101668.47
2023-08-17T21:08:16.935Z,101663.28
2023-08-17T21:13:21.503Z,101664.16
2023-08-17T21:18:24.274Z,101652.53
2023-08-17T21:23:27.539Z,101641.63
2023-08-17T21:28:31.648Z,101650.63
2023-08-17T21:33:34.618Z,101644.41
2023-08-17T21:38:37.414Z,101642.38
2023-08-17T21:43:41.536Z,101644.88
2023-08-17T21:48:44.342Z,101638.34
2023-08-17T21:53:47.373Z,101638.25
2023-08-17T21:58:51.486Z,101646.25
2023-08-17T22:03:54.303Z,101642.03
2023-08-17T22:08:57.124Z,101645.31
2023-08-17T22:14:01.259Z,101649.25
2023-08-17T22:19:04.126Z,101651.19
2023-08-17T22:24:07.743Z,101637.88
2023-08-17T22:29:12.460Z,101642.84
2023-08-17T22:34:15.287Z,101650.16
2023-08-17T22:39:18.067Z,101647.69
2023-08-17T22:44:22.199Z,101643.47
2023-08-17T22:49:24.968Z,101646.94
2023-08-17T22:54:27.769Z,101649.69
2023-08-17T22:59:31.960Z,101639.56
2023-08-17T23:04:34.789Z,101652.56
2023-08-17T23:09:37.580Z,101660.78
2023-08-17T23:14:41.906Z,101645.94
2023-08-17T23:19:44.700Z,101646.41
2023-08-17T23:24:47.520Z,101645.31
2023-08-17T23:29:51.728Z,101655.28
2023-08-17T23:34:54.609Z,101631.75
2023-08-17T23:39:57.391Z,101638.09
2023-08-17T23:45:01.542Z,101648.25
2023-08-17T23:50:06.022Z,101642.22
2023-08-17T23:55:08.995Z,101645.38
